Time;durP1;ratioP1;P1;durP2;ratioP2;P2;SDS_P1;SDS_P2;PMS_P1;PMS_P2;Temp;Humidity;BMP_temperature;BMP_pressure;BME280_temperature;BME280_humidity;BME280_pressure;Samples;Min_cycle;Max_cycle;Signal;HPM_P1;HPM_P2
2023/12/21 00:00:12;;;;;;;6.72;3.97;;;2.10;99.90;;;;;;5022068;28;20037;-59
2023/12/21 00:02:39;;;;;;;;;;;2.10;99.90;;;;;;5030274;28;20069;-59
2023/12/21 00:05:06;;;;;;;5.15;2.83;;;2.10;99.90;;;;;;5015868;28;19936;-60
2023/12/21 00:07:33;;;;;;;6.72;4.10;;;2.10;99.90;;;;;;5005844;28;20588;-59
2023/12/21 00:09:59;;;;;;;8.55;4.20;;;2.10;99.90;;;;;;5024796;28;20052;-59
2023/12/21 00:12:26;;;;;;;7.97;4.68;;;2.10;99.90;;;;;;5033329;28;20089;-57
2023/12/21 00:14:53;;;;;;;9.45;5.20;;;2.10;99.90;;;;;;5033089;28;20048;-58
2023/12/21 00:17:20;;;;;;;8.40;3.72;;;2.10;99.90;;;;;;5025097;28;20038;-60
2023/12/21 00:19:47;;;;;;;6.00;3.60;;;2.00;99.90;;;;;;5030833;28;20045;-60
2023/12/21 00:22:14;;;;;;;6.28;3.80;;;1.90;99.90;;;;;;5032968;28;20052;-57
2023/12/21 00:24:40;;;;;;;3.50;2.40;;;1.80;99.90;;;;;;5032023;28;20046;-55
2023/12/21 00:27:07;;;;;;;8.40;3.58;;;1.70;99.90;;;;;;5032898;28;20045;-57
2023/12/21 00:29:34;;;;;;;7.50;3.22;;;1.70;99.90;;;;;;5024563;28;20045;-58
2023/12/21 00:32:01;;;;;;;7.97;3.60;;;1.70;99.90;;;;;;5024723;28;20132;-57
2023/12/21 00:34:28;;;;;;;9.65;4.20;;;1.80;99.90;;;;;;5031201;28;20052;-58
2023/12/21 00:36:54;;;;;;;7.47;4.25;;;1.80;99.90;;;;;;5032685;28;20052;-58
2023/12/21 00:39:21;;;;;;;9.88;5.78;;;2.00;99.90;;;;;;5032872;28;20041;-58
2023/12/21 00:41:48;;;;;;;5.75;3.70;;;2.00;99.90;;;;;;5025982;28;20390;-57
2023/12/21 00:44:15;;;;;;;10.57;6.85;;;1.90;99.90;;;;;;5025812;28;20037;-55
2023/12/21 00:46:41;;;;;;;17.33;9.85;;;2.00;99.90;;;;;;5034087;28;20041;-55
2023/12/21 00:49:08;;;;;;;17.55;8.75;;;2.00;99.90;;;;;;5027858;28;20042;-58
2023/12/21 00:51:35;;;;;;;15.38;9.55;;;2.10;99.90;;;;;;5032500;28;20434;-58
2023/12/21 00:54:02;;;;;;;19.98;10.35;;;2.10;99.90;;;;;;5031276;28;20041;-56
2023/12/21 00:56:30;;;;;;;18.88;10.50;;;2.20;99.90;;;;;;5026375;28;20046;-57
2023/12/21 00:58:59;;;;;;;14.50;7.45;;;2.20;99.90;;;;;;5032335;28;20478;-57
2023/12/21 01:01:26;;;;;;;11.68;7.13;;;2.20;99.90;;;;;;5029589;28;20050;-55
2023/12/21 01:03:53;;;;;;;18.95;8.65;;;2.30;99.90;;;;;;5020755;28;20181;-58
2023/12/21 01:06:20;;;;;;;13.15;7.35;;;2.30;99.90;;;;;;5030388;28;20482;-57
2023/12/21 01:08:47;;;;;;;8.25;4.70;;;2.20;99.90;;;;;;5031316;28;20033;-59
2023/12/21 01:11:14;;;;;;;12.85;6.45;;;2.10;99.90;;;;;;5032213;28;20045;-58
2023/12/21 01:13:41;;;;;;;8.95;4.93;;;2.00;99.90;;;;;;5024050;28;20545;-54
2023/12/21 01:16:07;;;;;;;7.85;5.20;;;2.00;99.90;;;;;;5031099;28;20045;-57
2023/12/21 01:18:34;;;;;;;9.73;5.50;;;1.90;99.90;;;;;;5027595;28;20049;-58
2023/12/21 01:21:01;;;;;;;7.00;4.80;;;1.90;99.90;;;;;;5027608;28;20037;-58
2023/12/21 01:23:28;;;;;;;7.97;3.97;;;1.80;99.90;;;;;;5028811;28;20038;-58
2023/12/21 01:25:55;;;;;;;7.50;5.10;;;1.80;99.90;;;;;;5030654;28;20125;-59
2023/12/21 01:28:21;;;;;;;10.70;5.13;;;1.70;99.90;;;;;;5030588;28;20069;-58
2023/12/21 01:30:48;;;;;;;8.45;5.30;;;1.80;99.90;;;;;;5031842;28;20112;-56
2023/12/21 01:33:15;;;;;;;11.15;5.13;;;1.80;99.90;;;;;;5030148;28;20053;-57
2023/12/21 01:35:42;;;;;;;13.65;6.05;;;1.80;99.90;;;;;;5031753;28;20053;-60
2023/12/21 01:38:09;;;;;;;12.57;6.72;;;1.70;99.90;;;;;;5031117;28;20046;-58
2023/12/21 01:40:35;;;;;;;8.02;5.10;;;1.80;99.90;;;;;;5027331;28;20048;-58
2023/12/21 01:43:02;;;;;;;10.07;6.20;;;1.80;99.90;;;;;;5028095;28;20391;-57
2023/12/21 01:45:30;;;;;;;10.15;7.22;;;1.90;99.90;;;;;;5029413;28;20041;-58
2023/12/21 01:47:57;;;;;;;13.98;7.88;;;1.90;99.90;;;;;;5027516;28;20397;-60
2023/12/21 01:50:25;;;;;;;11.75;7.35;;;2.00;99.90;;;;;;5031224;28;20417;-56
2023/12/21 01:52:55;;;;;;;14.88;8.70;;;2.10;99.90;;;;;;5031920;28;20045;-58
2023/12/21 01:55:23;;;;;;;18.48;8.88;;;2.10;99.90;;;;;;5028910;28;20546;-59
2023/12/21 01:57:50;;;;;;;14.38;8.63;;;2.10;99.90;;;;;;5025447;28;20044;-58
2023/12/21 02:00:18;;;;;;;16.80;9.20;;;2.20;99.90;;;;;;5029653;28;20049;-58
2023/12/21 02:02:46;;;;;;;19.17;9.65;;;2.20;99.90;;;;;;5031072;28;20045;-55
2023/12/21 02:05:13;;;;;;;18.63;9.77;;;2.20;99.90;;;;;;5025085;28;20057;-58
2023/12/21 02:07:40;;;;;;;20.40;10.02;;;2.30;99.90;;;;;;5031408;28;20052;-60
2023/12/21 02:10:07;;;;;;;20.25;10.23;;;2.30;99.90;;;;;;5031283;28;20073;-59
2023/12/21 02:12:34;;;;;;;17.88;9.65;;;2.30;99.90;;;;;;5030626;28;20151;-59
2023/12/21 02:15:01;;;;;;;12.45;6.45;;;2.30;99.90;;;;;;5031431;28;20056;-58
2023/12/21 02:17:29;;;;;;;17.77;9.35;;;2.30;99.90;;;;;;5031361;28;20532;-58
2023/12/21 02:19:56;;;;;;;21.92;9.00;;;2.30;99.90;;;;;;5035726;28;20038;-56
2023/12/21 02:22:26;;;;;;;16.92;9.38;;;2.30;99.90;;;;;;5023232;28;20050;-55
2023/12/21 02:24:53;;;;;;;16.92;8.80;;;2.30;99.90;;;;;;5034105;28;20087;-60
2023/12/21 02:27:20;;;;;;;17.02;8.95;;;2.30;99.90;;;;;;5034794;28;20135;-58
2023/12/21 02:29:47;;;;;;;17.92;8.95;;;2.30;99.90;;;;;;5027097;28;20091;-59
2023/12/21 02:32:14;;;;;;;16.52;8.25;;;2.30;99.90;;;;;;5033156;28;20062;-57
2023/12/21 02:34:41;;;;;;;17.95;8.68;;;2.30;99.90;;;;;;5035378;28;20041;-58
2023/12/21 02:37:08;;;;;;;18.52;9.73;;;2.20;99.90;;;;;;5025153;28;20042;-57
2023/12/21 02:39:35;;;;;;;17.80;9.52;;;2.20;99.90;;;;;;5035547;28;20044;-59
2023/12/21 02:42:02;;;;;;;17.65;9.38;;;2.20;99.90;;;;;;5034685;28;20034;-58
2023/12/21 02:44:28;;;;;;;15.63;9.18;;;2.20;99.90;;;;;;5021318;28;20053;-59
2023/12/21 02:46:57;;;;;;;15.38;9.07;;;2.20;99.90;;;;;;5034382;28;20046;-57
2023/12/21 02:49:24;;;;;;;17.70;9.75;;;2.30;99.90;;;;;;5027324;28;20056;-59
2023/12/21 02:51:51;;;;;;;16.33;8.25;;;2.20;99.90;;;;;;5034982;28;20048;-58
2023/12/21 02:54:18;;;;;;;18.08;8.43;;;2.20;99.90;;;;;;5033808;28;20038;-57
2023/12/21 02:56:44;;;;;;;20.13;8.75;;;2.20;99.90;;;;;;5033791;28;20057;-60
2023/12/21 02:59:11;;;;;;;14.70;8.35;;;2.30;99.90;;;;;;5034002;28;20038;-59
2023/12/21 03:01:42;;;;;;;14.55;8.02;;;2.30;99.90;;;;;;5033450;28;20057;-59
2023/12/21 03:04:10;;;;;;;13.82;7.57;;;2.40;99.90;;;;;;5034723;28;20336;-59
2023/12/21 03:06:36;;;;;;;13.43;8.40;;;2.40;99.90;;;;;;5025700;28;20033;-59
2023/12/21 03:09:03;;;;;;;16.10;8.38;;;2.50;99.90;;;;;;5026535;28;20045;-58
2023/12/21 03:11:30;;;;;;;16.75;8.30;;;2.50;99.90;;;;;;5032630;28;20049;-59
2023/12/21 03:13:57;;;;;;;13.65;8.05;;;2.40;99.90;;;;;;5034644;28;20052;-58
2023/12/21 03:16:24;;;;;;;16.58;9.55;;;2.30;99.90;;;;;;5032467;28;20046;-58
2023/12/21 03:18:51;;;;;;;14.50;8.15;;;2.30;99.90;;;;;;5027487;28;20038;-58
2023/12/21 03:21:17;;;;;;;18.05;9.18;;;2.30;99.90;;;;;;5033383;28;20546;-59
2023/12/21 03:23:44;;;;;;;18.83;9.20;;;2.30;99.90;;;;;;5034355;28;20045;-57
2023/12/21 03:26:11;;;;;;;16.65;9.52;;;2.30;99.90;;;;;;5033085;28;20034;-59
2023/12/21 03:28:44;;;;;;;22.88;10.38;;;2.30;99.90;;;;;;5032822;28;20076;-59
2023/12/21 03:31:11;;;;;;;21.13;11.05;;;2.30;99.90;;;;;;5034533;28;20552;-59
2023/12/21 03:33:38;;;;;;;21.58;10.13;;;2.20;99.90;;;;;;5033932;28;20040;-58
2023/12/21 03:36:06;;;;;;;20.17;10.05;;;2.20;99.90;;;;;;5027008;28;20048;-58
2023/12/21 03:38:32;;;;;;;;;;;2.20;99.90;;;;;;5032519;28;20504;-57
2023/12/21 03:40:59;;;;;;;22.80;10.13;;;2.20;99.90;;;;;;5034260;28;20270;-58
2023/12/21 03:43:26;;;;;;;17.80;10.73;;;2.20;99.90;;;;;;5033486;28;20137;-57
2023/12/21 03:45:56;;;;;;;22.63;11.02;;;2.20;99.90;;;;;;5033805;28;20034;-60
2023/12/21 03:48:24;;;;;;;14.00;7.82;;;2.20;99.90;;;;;;5031711;28;20103;-57
2023/12/21 03:50:51;;;;;;;;;;;2.20;99.90;;;;;;5024378;28;20049;-60
2023/12/21 03:53:17;;;;;;;17.88;9.98;;;2.20;99.90;;;;;;5023407;28;19921;-58
2023/12/21 03:55:44;;;;;;;19.25;10.88;;;2.20;99.90;;;;;;5032837;28;20041;-57
2023/12/21 03:58:11;;;;;;;23.92;10.73;;;2.30;99.90;;;;;;5025964;28;20045;-58
2023/12/21 04:00:38;;;;;;;21.20;10.25;;;2.30;99.90;;;;;;5031693;28;20056;-59
2023/12/21 04:03:05;;;;;;;19.50;10.05;;;2.30;99.90;;;;;;5031587;28;20095;-59
2023/12/21 04:05:32;;;;;;;19.08;10.20;;;2.30;99.90;;;;;;5032844;28;20037;-58
2023/12/21 04:07:59;;;;;;;21.35;10.27;;;2.40;99.90;;;;;;5032922;28;20041;-59
2023/12/21 04:10:26;;;;;;;20.98;10.55;;;2.40;99.90;;;;;;5032631;28;20060;-58
2023/12/21 04:12:52;;;;;;;20.73;9.07;;;2.40;99.90;;;;;;5032490;28;20041;-58
2023/12/21 04:15:19;;;;;;;13.57;6.20;;;2.40;99.90;;;;;;5033387;28;20049;-55
2023/12/21 04:17:46;;;;;;;15.40;9.38;;;2.40;99.90;;;;;;5024794;28;20045;-58
2023/12/21 04:20:13;;;;;;;17.13;8.80;;;2.30;99.90;;;;;;5025282;28;20044;-55
2023/12/21 04:22:40;;;;;;;16.77;8.50;;;2.40;99.90;;;;;;5024642;28;20033;-57
2023/12/21 04:25:08;;;;;;;16.40;8.50;;;2.40;99.90;;;;;;5032287;28;20124;-55
2023/12/21 04:27:34;;;;;;;;;;;2.40;99.90;;;;;;5033301;28;20079;-58
2023/12/21 04:30:02;;;;;;;19.90;10.00;;;2.50;99.90;;;;;;5027176;28;19929;-56
2023/12/21 04:32:30;;;;;;;18.65;9.00;;;2.50;99.90;;;;;;5028797;28;20401;-59
2023/12/21 04:34:56;;;;;;;14.65;7.35;;;2.40;99.90;;;;;;5033003;28;20056;-58
2023/12/21 04:37:23;;;;;;;11.63;7.35;;;2.40;99.90;;;;;;5031762;28;20052;-59
2023/12/21 04:39:50;;;;;;;13.13;7.15;;;2.50;99.90;;;;;;5029750;28;20045;-58
2023/12/21 04:42:17;;;;;;;14.35;7.70;;;2.50;99.90;;;;;;5031412;28;20059;-58
2023/12/21 04:44:44;;;;;;;9.50;5.55;;;2.40;99.90;;;;;;5032124;28;20422;-58
2023/12/21 04:47:11;;;;;;;14.52;7.82;;;2.50;99.90;;;;;;5031724;28;20037;-59
2023/12/21 04:49:50;;;;;;;16.90;7.63;;;2.50;99.90;;;;;;5026105;28;20069;-58
2023/12/21 04:52:17;;;;;;;14.15;7.60;;;2.50;99.90;;;;;;5031647;28;20065;-59
2023/12/21 04:54:44;;;;;;;12.35;7.28;;;2.50;99.90;;;;;;5030566;28;20129;-59
2023/12/21 04:57:11;;;;;;;;;;;2.50;99.90;;;;;;5032359;28;20091;-58
2023/12/21 04:59:42;;;;;;;13.18;6.63;;;2.50;99.90;;;;;;5031665;28;20727;-58
2023/12/21 05:02:09;;;;;;;16.40;7.78;;;2.50;99.90;;;;;;5030374;28;20418;-59
2023/12/21 05:04:36;;;;;;;14.30;8.02;;;2.50;99.90;;;;;;5030988;28;20045;-59
2023/12/21 05:07:08;;;;;;;17.40;8.05;;;2.50;99.90;;;;;;5031653;28;20508;-58
2023/12/21 05:09:36;;;;;;;17.83;8.65;;;2.50;99.90;;;;;;5037808;28;20045;-59
2023/12/21 05:12:04;;;;;;;16.88;8.38;;;2.50;99.90;;;;;;5029520;28;20095;-58
2023/12/21 05:14:31;;;;;;;15.13;8.25;;;2.40;99.90;;;;;;5031314;28;20371;-60
2023/12/21 05:16:58;;;;;;;19.60;9.00;;;2.50;99.90;;;;;;5030627;28;20049;-59
2023/12/21 05:19:25;;;;;;;17.90;8.75;;;2.50;99.90;;;;;;5026375;28;20041;-58
2023/12/21 05:21:52;;;;;;;13.30;8.23;;;2.60;99.90;;;;;;5031768;28;20083;-59
2023/12/21 05:24:19;;;;;;;15.70;7.25;;;2.60;99.90;;;;;;5028551;28;20046;-59
2023/12/21 05:26:46;;;;;;;12.05;7.13;;;2.60;99.90;;;;;;5031388;28;20045;-58
2023/12/21 05:29:13;;;;;;;15.52;6.32;;;2.60;99.90;;;;;;5031593;28;20467;-58
2023/12/21 05:31:41;;;;;;;17.02;7.35;;;2.70;99.90;;;;;;5029428;28;20049;-57
2023/12/21 05:34:09;;;;;;;13.90;8.40;;;2.70;99.90;;;;;;5031373;28;20049;-58
2023/12/21 05:36:36;;;;;;;15.32;7.63;;;2.60;99.90;;;;;;5030660;28;20046;-59
2023/12/21 05:39:03;;;;;;;18.50;8.93;;;2.50;99.90;;;;;;5027610;28;20049;-56
2023/12/21 05:41:43;;;;;;;18.20;7.93;;;2.60;99.90;;;;;;5028305;28;20095;-58
2023/12/21 05:44:09;;;;;;;19.55;8.77;;;2.60;99.90;;;;;;5031327;28;20391;-56
2023/12/21 05:46:36;;;;;;;11.63;7.38;;;2.60;99.90;;;;;;5028698;28;20056;-59
2023/12/21 05:49:03;;;;;;;15.88;8.35;;;2.70;99.90;;;;;;5031011;28;20097;-60
2023/12/21 05:51:31;;;;;;;13.27;7.07;;;2.70;99.90;;;;;;5029388;28;20482;-54
2023/12/21 05:53:58;;;;;;;12.68;7.13;;;2.70;99.90;;;;;;5029361;28;20456;-58
2023/12/21 05:56:24;;;;;;;12.57;7.35;;;2.60;99.90;;;;;;5030364;28;20055;-58
2023/12/21 05:58:51;;;;;;;12.15;7.00;;;2.70;99.90;;;;;;5029774;28;20045;-59
2023/12/21 06:01:18;;;;;;;16.45;8.02;;;2.70;99.90;;;;;;5028315;28;20116;-59
2023/12/21 06:03:45;;;;;;;16.67;8.25;;;2.70;99.90;;;;;;5028588;28;20073;-54
2023/12/21 06:06:13;;;;;;;14.93;8.48;;;2.80;99.90;;;;;;5022777;28;20491;-58
2023/12/21 06:08:40;;;;;;;17.52;7.65;;;2.80;99.90;;;;;;5028299;28;20041;-57
2023/12/21 06:11:07;;;;;;;16.63;8.30;;;2.80;99.90;;;;;;5029440;28;20041;-58
2023/12/21 06:13:34;;;;;;;14.80;8.32;;;2.70;99.90;;;;;;5013211;28;20045;-59
2023/12/21 06:16:01;;;;;;;20.25;9.15;;;2.70;99.90;;;;;;5012831;28;20072;-58
2023/12/21 06:18:28;;;;;;;16.50;8.90;;;2.70;99.90;;;;;;5031339;28;20052;-57
2023/12/21 06:20:55;;;;;;;15.95;9.05;;;2.70;99.90;;;;;;5029634;28;20099;-60
2023/12/21 06:23:22;;;;;;;17.67;9.80;;;2.60;99.90;;;;;;5031362;28;20092;-56
2023/12/21 06:25:48;;;;;;;18.92;9.73;;;2.60;99.90;;;;;;5030136;28;20041;-58
2023/12/21 06:28:15;;;;;;;15.90;8.82;;;2.60;99.90;;;;;;5031419;28;20053;-57
2023/12/21 06:30:44;;;;;;;14.85;7.93;;;2.60;99.90;;;;;;5030204;28;20080;-57
2023/12/21 06:33:11;;;;;;;16.48;9.00;;;2.60;99.90;;;;;;5029942;28;20449;-59
2023/12/21 06:35:38;;;;;;;12.25;7.68;;;2.60;99.90;;;;;;5028114;28;20103;-59
2023/12/21 06:38:06;;;;;;;18.13;7.90;;;2.60;99.90;;;;;;5022907;28;20037;-58
2023/12/21 06:40:33;;;;;;;12.70;7.38;;;2.70;99.90;;;;;;5027901;28;20045;-59
2023/12/21 06:43:00;;;;;;;9.57;5.22;;;2.70;99.90;;;;;;5029998;28;20042;-59
2023/12/21 06:45:27;;;;;;;13.50;5.30;;;2.70;99.90;;;;;;5030599;28;20111;-58
2023/12/21 06:47:54;;;;;;;14.32;6.47;;;2.70;99.90;;;;;;5030919;28;20042;-59
2023/12/21 06:50:21;;;;;;;17.52;6.72;;;2.70;99.90;;;;;;5031186;28;20037;-58
2023/12/21 06:52:47;;;;;;;16.80;7.80;;;2.70;99.90;;;;;;5030041;28;20052;-59
2023/12/21 06:55:15;;;;;;;;;;;2.70;99.90;;;;;;5027490;28;20388;-58
2023/12/21 06:57:41;;;;;;;15.40;8.18;;;2.70;99.90;;;;;;5028307;28;19971;-58
2023/12/21 07:00:09;;;;;;;15.57;8.30;;;2.60;99.90;;;;;;5028161;28;20065;-61
2023/12/21 07:02:37;;;;;;;15.07;8.48;;;2.60;99.90;;;;;;5027916;28;20060;-59
2023/12/21 07:05:04;;;;;;;;;;;2.60;99.90;;;;;;5034683;28;20060;-59
2023/12/21 07:07:30;;;;;;;12.55;7.45;;;2.50;99.90;;;;;;5028977;28;20536;-58
2023/12/21 07:09:57;;;;;;;18.15;8.73;;;2.50;99.90;;;;;;5030716;28;20045;-59
2023/12/21 07:12:26;;;;;;;18.25;10.10;;;2.60;99.90;;;;;;5027710;28;20541;-59
2023/12/21 07:14:53;;;;;;;35.78;14.05;;;2.60;99.90;;;;;;5034624;28;20438;-54
2023/12/21 07:17:20;;;;;;;39.92;15.63;;;2.60;99.90;;;;;;5015000;28;20053;-55
2023/12/21 07:19:47;;;;;;;38.05;15.10;;;2.60;99.90;;;;;;5029600;28;20045;-55
2023/12/21 07:22:14;;;;;;;24.30;11.25;;;2.60;99.90;;;;;;5032650;28;20071;-60
2023/12/21 07:24:40;;;;;;;36.92;14.98;;;2.60;99.90;;;;;;5031726;28;20490;-58
2023/12/21 07:27:07;;;;;;;39.28;16.33;;;2.70;99.90;;;;;;5032827;28;20124;-57
2023/12/21 07:29:35;;;;;;;32.85;14.52;;;2.60;99.90;;;;;;5031858;28;20494;-57
2023/12/21 07:32:02;;;;;;;38.60;15.05;;;2.60;99.90;;;;;;5024954;28;20037;-58
2023/12/21 07:34:29;;;;;;;53.33;21.88;;;2.70;99.90;;;;;;5032927;28;20044;-57
2023/12/21 07:36:55;;;;;;;31.80;13.98;;;2.70;99.90;;;;;;5030277;28;20034;-58
2023/12/21 07:39:22;;;;;;;20.33;9.93;;;2.80;99.90;;;;;;5032420;28;20194;-59
2023/12/21 07:41:49;;;;;;;22.85;9.73;;;2.90;99.90;;;;;;5033377;28;20045;-58
2023/12/21 07:44:16;;;;;;;14.82;7.90;;;2.90;99.90;;;;;;5033470;28;20038;-59
2023/12/21 07:46:43;;;;;;;;;;;3.00;99.90;;;;;;5030945;28;20053;-56
2023/12/21 07:49:10;;;;;;;17.83;8.52;;;3.00;99.90;;;;;;5033572;28;20374;-58
2023/12/21 07:51:37;;;;;;;14.60;7.00;;;3.00;99.90;;;;;;5032698;28;20062;-57
2023/12/21 07:54:04;;;;;;;17.85;8.93;;;3.00;99.90;;;;;;5031529;28;20045;-57
2023/12/21 07:56:30;;;;;;;22.08;9.93;;;3.10;99.90;;;;;;5032007;28;20552;-57
2023/12/21 07:59:04;;;;;;;14.13;7.63;;;3.20;99.90;;;;;;5030873;28;20037;-57
2023/12/21 08:01:31;;;;;;;16.13;7.47;;;3.20;99.90;;;;;;5031416;28;20048;-57
2023/12/21 08:03:58;;;;;;;;;;;3.10;99.90;;;;;;5016716;28;20064;-58
2023/12/21 08:06:25;;;;;;;16.20;8.27;;;3.00;99.90;;;;;;5031262;28;19928;-55
2023/12/21 08:08:52;;;;;;;14.43;7.70;;;3.10;99.90;;;;;;5032847;28;20046;-57
2023/12/21 08:11:24;;;;;;;13.27;7.22;;;3.10;99.90;;;;;;5031660;28;20049;-59
2023/12/21 08:13:54;;;;;;;17.15;7.55;;;3.20;99.90;;;;;;5032658;28;20048;-59
2023/12/21 08:16:21;;;;;;;13.57;7.60;;;3.10;99.90;;;;;;5030825;28;20047;-59
2023/12/21 08:18:47;;;;;;;19.70;9.73;;;3.20;99.90;;;;;;5032802;28;20045;-56
2023/12/21 08:21:14;;;;;;;19.98;9.32;;;3.30;99.90;;;;;;5031453;28;20033;-57
2023/12/21 08:23:41;;;;;;;10.13;5.63;;;3.30;99.90;;;;;;5032827;28;20505;-57
2023/12/21 08:26:09;;;;;;;17.50;8.25;;;3.30;99.90;;;;;;5032559;28;20033;-55
2023/12/21 08:28:36;;;;;;;18.10;8.40;;;3.30;99.90;;;;;;5031669;28;20042;-56
2023/12/21 08:31:03;;;;;;;15.93;8.70;;;3.40;99.90;;;;;;5031021;28;20045;-58
2023/12/21 08:33:30;;;;;;;14.80;8.73;;;3.30;99.90;;;;;;5032579;28;20490;-56
2023/12/21 08:35:58;;;;;;;14.95;7.47;;;3.40;99.90;;;;;;5031776;28;20577;-58
2023/12/21 08:38:25;;;;;;;15.27;8.07;;;3.40;99.90;;;;;;5032543;28;20128;-57
2023/12/21 08:40:52;;;;;;;17.92;7.80;;;3.50;99.90;;;;;;5029930;28;20034;-59
2023/12/21 08:43:18;;;;;;;13.80;8.18;;;3.50;99.90;;;;;;5032401;28;20052;-59
2023/12/21 08:45:45;;;;;;;19.45;7.95;;;3.50;99.90;;;;;;5030273;28;20041;-56
2023/12/21 08:48:12;;;;;;;13.35;8.07;;;3.50;99.90;;;;;;5032417;28;20079;-57
2023/12/21 08:50:39;;;;;;;17.38;8.13;;;3.50;99.90;;;;;;5029850;28;20068;-59
2023/12/21 08:53:06;;;;;;;16.80;8.13;;;3.50;99.90;;;;;;5032067;28;20053;-55
2023/12/21 08:55:33;;;;;;;15.25;7.97;;;3.60;99.90;;;;;;5029323;28;20052;-59
2023/12/21 08:57:59;;;;;;;14.32;8.13;;;3.60;99.90;;;;;;5031886;28;20063;-57
2023/12/21 09:00:26;;;;;;;14.45;8.38;;;3.60;99.90;;;;;;5029678;28;20541;-56
2023/12/21 09:02:53;;;;;;;17.33;8.27;;;3.70;99.90;;;;;;5031221;28;20121;-56
2023/12/21 09:05:23;;;;;;;16.52;7.93;;;3.70;99.90;;;;;;5031999;28;20046;-55
2023/12/21 09:07:50;;;;;;;16.20;7.47;;;3.70;99.90;;;;;;5031717;28;20552;-56
2023/12/21 09:10:17;;;;;;;16.33;8.15;;;3.70;99.90;;;;;;5030925;28;20049;-56
2023/12/21 09:12:45;;;;;;;17.90;8.00;;;3.70;99.90;;;;;;5031844;28;20045;-57
2023/12/21 09:15:12;;;;;;;14.50;7.80;;;3.70;99.90;;;;;;5029968;28;20045;-55
2023/12/21 09:17:40;;;;;;;15.75;7.85;;;3.60;99.90;;;;;;5031266;28;20136;-57
2023/12/21 09:20:11;;;;;;;16.65;9.23;;;3.60;99.90;;;;;;5030866;28;20050;-60
2023/12/21 09:22:37;;;;;;;15.75;7.07;;;3.60;99.90;;;;;;5030830;28;20051;-58
2023/12/21 09:25:05;;;;;;;14.10;7.95;;;3.60;99.90;;;;;;5028778;28;20041;-57
2023/12/21 09:27:34;;;;;;;13.88;7.68;;;3.70;99.90;;;;;;5031194;28;20057;-58
2023/12/21 09:30:01;;;;;;;11.25;6.75;;;3.70;99.90;;;;;;5030684;28;20045;-57
2023/12/21 09:32:28;;;;;;;16.20;8.35;;;3.70;99.90;;;;;;5030576;28;20052;-56
2023/12/21 09:34:55;;;;;;;17.45;7.95;;;3.70;99.90;;;;;;5029864;28;20053;-59
2023/12/21 09:37:21;;;;;;;20.52;9.07;;;3.80;99.90;;;;;;5031151;28;20133;-57
2023/12/21 09:39:49;;;;;;;19.02;9.50;;;3.80;99.90;;;;;;5031021;28;20045;-58
2023/12/21 09:42:16;;;;;;;14.60;8.32;;;3.80;99.90;;;;;;5031314;28;20056;-57
2023/12/21 09:44:48;;;;;;;9.80;6.05;;;3.80;99.90;;;;;;5030125;28;20041;-59
2023/12/21 09:47:18;;;;;;;15.88;7.95;;;3.80;99.90;;;;;;5029735;28;20129;-58
2023/12/21 09:49:47;;;;;;;18.75;8.88;;;3.90;99.90;;;;;;5031303;28;20041;-59
2023/12/21 09:52:18;;;;;;;14.85;8.48;;;3.90;99.90;;;;;;5030704;28;20045;-56
2023/12/21 09:54:47;;;;;;;18.50;9.20;;;4.00;99.90;;;;;;5029923;28;20049;-57
2023/12/21 09:57:15;;;;;;;14.02;9.10;;;4.10;99.90;;;;;;5030206;28;20446;-59
2023/12/21 09:59:41;;;;;;;15.40;7.95;;;4.10;99.90;;;;;;5030589;28;20051;-56
2023/12/21 10:02:14;;;;;;;17.77;9.23;;;4.20;99.90;;;;;;5029927;28;20437;-57
2023/12/21 10:04:45;;;;;;;20.48;10.70;;;4.40;99.90;;;;;;5029249;28;20030;-59
2023/12/21 10:07:12;;;;;;;12.13;6.85;;;4.30;99.90;;;;;;5030378;28;20146;-56
2023/12/21 10:09:40;;;;;;;11.27;5.65;;;4.40;99.90;;;;;;5030979;28;20045;-57
2023/12/21 10:12:07;;;;;;;11.38;6.35;;;4.40;99.90;;;;;;5030290;28;20566;-58
2023/12/21 10:14:34;;;;;;;12.85;6.63;;;4.50;99.90;;;;;;5030967;28;20077;-57
2023/12/21 10:17:01;;;;;;;13.55;6.78;;;4.60;99.90;;;;;;5029244;28;20124;-55
2023/12/21 10:19:28;;;;;;;11.43;6.60;;;4.70;99.90;;;;;;5030899;28;20124;-58
2023/12/21 10:21:57;;;;;;;15.15;8.18;;;4.70;99.90;;;;;;5030851;28;20099;-54
2023/12/21 10:24:25;;;;;;;18.42;8.00;;;4.80;99.90;;;;;;5028626;28;20045;-57
2023/12/21 10:26:52;;;;;;;14.55;7.00;;;4.90;99.90;;;;;;5030654;28;20053;-59
2023/12/21 10:29:20;;;;;;;16.67;8.10;;;4.90;99.90;;;;;;5022541;28;20049;-57
2023/12/21 10:31:48;;;;;;;14.00;7.28;;;4.90;99.90;;;;;;5030391;28;20056;-58
2023/12/21 10:34:16;;;;;;;14.25;7.80;;;4.90;99.90;;;;;;5027864;28;20033;-57
2023/12/21 10:36:44;;;;;;;15.45;7.63;;;4.90;99.90;;;;;;5029214;28;20056;-58
2023/12/21 10:39:12;;;;;;;16.48;8.07;;;4.90;99.90;;;;;;5031608;28;20045;-57
2023/12/21 10:41:43;;;;;;;14.00;7.18;;;4.90;99.90;;;;;;5034609;28;20132;-57
2023/12/21 10:44:12;;;;;;;11.95;6.68;;;4.90;99.90;;;;;;5033772;28;20072;-58
2023/12/21 10:46:41;;;;;;;13.25;7.63;;;4.80;99.90;;;;;;5034385;28;20133;-55
2023/12/21 10:49:10;;;;;;;14.63;8.13;;;4.80;99.90;;;;;;5034447;28;20045;-57
2023/12/21 10:51:39;;;;;;;17.63;8.68;;;4.70;99.90;;;;;;5033394;28;21049;-56
2023/12/21 10:54:11;;;;;;;15.38;7.95;;;4.70;99.90;;;;;;5034155;28;20047;-57
2023/12/21 10:56:42;;;;;;;16.95;8.75;;;4.70;99.90;;;;;;5033912;28;20044;-57
2023/12/21 10:59:12;;;;;;;19.35;9.15;;;4.80;99.90;;;;;;5034323;28;20133;-59
2023/12/21 11:01:42;;;;;;;19.58;8.50;;;4.80;99.90;;;;;;5031942;28;20060;-59
2023/12/21 11:04:10;;;;;;;15.68;8.57;;;4.80;99.90;;;;;;5034043;28;20045;-57
2023/12/21 11:06:41;;;;;;;13.95;7.30;;;4.90;99.90;;;;;;5033801;28;20056;-58
2023/12/21 11:09:11;;;;;;;17.70;6.68;;;4.90;99.90;;;;;;5034115;28;20042;-58
2023/12/21 11:11:39;;;;;;;11.30;6.57;;;4.90;99.90;;;;;;5033731;28;20494;-57
2023/12/21 11:14:05;;;;;;;15.15;6.90;;;4.90;99.90;;;;;;5033639;28;20037;-58
2023/12/21 11:16:41;;;;;;;14.05;7.22;;;4.90;99.90;;;;;;5033721;28;20043;-57
2023/12/21 11:19:11;;;;;;;14.35;7.22;;;5.00;99.90;;;;;;5031672;28;20045;-57
2023/12/21 11:21:40;;;;;;;15.02;6.63;;;5.00;99.90;;;;;;5032741;28;20041;-57
2023/12/21 11:24:06;;;;;;;12.38;6.95;;;5.10;99.90;;;;;;5033047;28;20052;-57
2023/12/21 11:26:36;;;;;;;12.80;7.47;;;5.00;99.90;;;;;;5033166;28;20037;-56
2023/12/21 11:29:07;;;;;;;14.77;7.82;;;5.00;99.90;;;;;;5033219;28;20044;-54
2023/12/21 11:31:38;;;;;;;23.80;10.43;;;5.00;99.90;;;;;;5032607;28;20124;-58
2023/12/21 11:34:12;;;;;;;17.80;9.57;;;4.90;99.90;;;;;;5033429;28;20398;-57
2023/12/21 11:36:40;;;;;;;20.35;9.77;;;4.90;99.90;;;;;;5033209;28;20468;-56
2023/12/21 11:39:14;;;;;;;17.52;8.38;;;5.00;99.90;;;;;;5033491;28;20117;-58
2023/12/21 11:41:57;;;;;;;17.40;9.45;;;5.10;99.90;;;;;;5032527;28;20425;-58
2023/12/21 11:44:36;;;;;;;16.65;8.90;;;5.10;99.90;;;;;;5033247;28;20487;-58
2023/12/21 11:47:07;;;;;;;15.88;8.50;;;5.10;99.90;;;;;;5032908;28;20060;-56
2023/12/21 11:49:34;;;;;;;11.55;6.65;;;5.20;99.90;;;;;;5032724;28;20042;-58
2023/12/21 11:52:01;;;;;;;;;;;5.30;99.90;;;;;;5031788;28;20448;-59
2023/12/21 11:54:28;;;;;;;14.90;6.75;;;5.30;99.90;;;;;;5033064;28;19921;-57
2023/12/21 11:57:10;;;;;;;12.85;6.80;;;5.30;99.90;;;;;;5030291;28;20041;-58
2023/12/21 11:59:37;;;;;;;13.85;7.07;;;5.20;99.90;;;;;;5026944;28;20053;-57
2023/12/21 12:02:07;;;;;;;12.70;6.78;;;5.20;99.90;;;;;;5021346;28;20042;-58
2023/12/21 12:04:34;;;;;;;12.55;7.28;;;5.20;99.90;;;;;;5021833;28;20050;-59
2023/12/21 12:07:03;;;;;;;11.25;6.72;;;5.10;99.90;;;;;;5016712;28;20639;-59
2023/12/21 12:09:30;;;;;;;15.02;7.57;;;5.10;99.90;;;;;;5025109;28;20052;-56
2023/12/21 12:11:57;;;;;;;13.48;7.10;;;5.10;99.90;;;;;;5033358;28;20517;-59
2023/12/21 12:14:24;;;;;;;;;;;5.10;99.90;;;;;;5031240;28;20124;-61
2023/12/21 12:16:51;;;;;;;13.60;7.30;;;5.20;99.90;;;;;;5031505;28;20008;-58
2023/12/21 12:19:18;;;;;;;17.92;8.27;;;5.20;99.90;;;;;;5032518;28;20050;-58
2023/12/21 12:21:45;;;;;;;16.65;8.15;;;5.20;99.90;;;;;;5033413;28;20041;-56
2023/12/21 12:24:17;;;;;;;17.10;9.02;;;5.30;99.90;;;;;;5031608;28;20049;-59
2023/12/21 12:26:44;;;;;;;19.23;8.57;;;5.40;99.90;;;;;;5032619;28;20037;-58
2023/12/21 12:29:15;;;;;;;12.50;7.63;;;5.50;99.90;;;;;;5032457;28;20037;-57
2023/12/21 12:31:43;;;;;;;15.43;7.47;;;5.50;99.90;;;;;;5032031;28;20029;-59
2023/12/21 12:34:11;;;;;;;13.27;7.72;;;5.50;99.90;;;;;;5029735;28;20572;-59
2023/12/21 12:36:39;;;;;;;15.93;7.72;;;5.40;99.90;;;;;;5032589;28;20449;-57
2023/12/21 12:39:09;;;;;;;13.75;7.25;;;5.40;99.90;;;;;;5031298;28;20099;-57
2023/12/21 12:41:36;;;;;;;13.13;6.90;;;5.30;99.90;;;;;;5032638;28;20124;-59
2023/12/21 12:44:03;;;;;;;13.50;7.07;;;5.30;99.90;;;;;;5031577;28;20033;-59
2023/12/21 12:46:30;;;;;;;12.38;7.00;;;5.30;99.90;;;;;;5032215;28;20372;-60
2023/12/21 12:48:58;;;;;;;12.27;6.57;;;5.30;99.90;;;;;;5031318;28;20116;-57
2023/12/21 12:51:25;;;;;;;19.85;7.05;;;5.30;99.90;;;;;;5031973;28;20095;-56